sensor_id;sensor_type;location;lat;lon;timestamp;P1;durP1;ratioP1;P2;durP2;ratioP2
76165;SDS011;65085;46.718;20.136;2022-11-15T00:00:34;24.10;;;12.82;;
76165;SDS011;65085;46.718;20.136;2022-11-15T00:03:55;35.00;;;13.73;;
76165;SDS011;65085;46.718;20.136;2022-11-15T00:07:16;30.27;;;13.95;;
76165;SDS011;65085;46.718;20.136;2022-11-15T00:10:58;23.08;;;12.65;;
76165;SDS011;65085;46.718;20.136;2022-11-15T00:14:22;29.80;;;13.63;;
76165;SDS011;65085;46.718;20.136;2022-11-15T00:17:43;26.55;;;14.48;;
76165;SDS011;65085;46.718;20.136;2022-11-15T00:21:04;29.17;;;14.03;;
76165;SDS011;65085;46.718;20.136;2022-11-15T00:24:27;32.30;;;14.07;;
76165;SDS011;65085;46.718;20.136;2022-11-15T00:27:48;26.27;;;13.88;;
76165;SDS011;65085;46.718;20.136;2022-11-15T00:31:12;31.63;;;13.65;;
76165;SDS011;65085;46.718;20.136;2022-11-15T00:34:33;28.83;;;13.80;;
76165;SDS011;65085;46.718;20.136;2022-11-15T00:37:54;25.07;;;12.73;;
76165;SDS011;65085;46.718;20.136;2022-11-15T00:41:15;30.27;;;12.93;;
76165;SDS011;65085;46.718;20.136;2022-11-15T00:44:36;23.83;;;12.77;;
76165;SDS011;65085;46.718;20.136;2022-11-15T00:47:59;27.48;;;13.60;;
76165;SDS011;65085;46.718;20.136;2022-11-15T00:51:20;28.17;;;14.35;;
76165;SDS011;65085;46.718;20.136;2022-11-15T00:54:42;25.50;;;13.23;;
76165;SDS011;65085;46.718;20.136;2022-11-15T00:58:03;28.30;;;13.98;;
76165;SDS011;65085;46.718;20.136;2022-11-15T01:01:23;25.55;;;12.63;;
76165;SDS011;65085;46.718;20.136;2022-11-15T01:04:46;24.27;;;12.30;;
76165;SDS011;65085;46.718;20.136;2022-11-15T01:08:10;28.23;;;12.68;;
76165;SDS011;65085;46.718;20.136;2022-11-15T01:11:33;25.87;;;13.07;;
76165;SDS011;65085;46.718;20.136;2022-11-15T01:14:53;26.80;;;14.13;;
76165;SDS011;65085;46.718;20.136;2022-11-15T01:18:14;24.48;;;12.82;;
76165;SDS011;65085;46.718;20.136;2022-11-15T01:21:37;29.63;;;14.23;;
76165;SDS011;65085;46.718;20.136;2022-11-15T01:24:58;32.20;;;13.50;;
76165;SDS011;65085;46.718;20.136;2022-11-15T01:28:19;27.07;;;13.47;;
76165;SDS011;65085;46.718;20.136;2022-11-15T01:31:40;27.17;;;14.02;;
76165;SDS011;65085;46.718;20.136;2022-11-15T01:35:01;24.88;;;12.70;;
76165;SDS011;65085;46.718;20.136;2022-11-15T01:38:23;25.70;;;13.57;;
76165;SDS011;65085;46.718;20.136;2022-11-15T01:41:44;23.58;;;12.68;;
76165;SDS011;65085;46.718;20.136;2022-11-15T01:45:05;24.77;;;13.27;;
76165;SDS011;65085;46.718;20.136;2022-11-15T01:48:34;25.08;;;13.18;;
76165;SDS011;65085;46.718;20.136;2022-11-15T01:51:55;23.02;;;12.05;;
76165;SDS011;65085;46.718;20.136;2022-11-15T01:55:20;22.63;;;12.02;;
76165;SDS011;65085;46.718;20.136;2022-11-15T01:58:43;20.40;;;11.73;;
76165;SDS011;65085;46.718;20.136;2022-11-15T02:02:05;21.97;;;12.27;;
76165;SDS011;65085;46.718;20.136;2022-11-15T02:05:26;23.98;;;12.57;;
76165;SDS011;65085;46.718;20.136;2022-11-15T02:08:48;21.83;;;12.38;;
76165;SDS011;65085;46.718;20.136;2022-11-15T02:12:12;23.02;;;11.98;;
76165;SDS011;65085;46.718;20.136;2022-11-15T02:15:43;20.20;;;11.27;;
76165;SDS011;65085;46.718;20.136;2022-11-15T02:19:17;21.40;;;11.53;;
76165;SDS011;65085;46.718;20.136;2022-11-15T02:22:58;22.27;;;11.93;;
76165;SDS011;65085;46.718;20.136;2022-11-15T02:26:57;25.23;;;12.23;;
76165;SDS011;65085;46.718;20.136;2022-11-15T02:30:48;19.17;;;10.73;;
76165;SDS011;65085;46.718;20.136;2022-11-15T02:34:19;20.42;;;11.00;;
76165;SDS011;65085;46.718;20.136;2022-11-15T02:37:47;20.83;;;11.43;;
76165;SDS011;65085;46.718;20.136;2022-11-15T02:41:16;21.20;;;11.23;;
76165;SDS011;65085;46.718;20.136;2022-11-15T02:44:45;21.20;;;11.85;;
76165;SDS011;65085;46.718;20.136;2022-11-15T02:48:09;22.58;;;12.18;;
76165;SDS011;65085;46.718;20.136;2022-11-15T02:51:32;20.85;;;11.75;;
76165;SDS011;65085;46.718;20.136;2022-11-15T02:54:54;23.90;;;12.73;;
76165;SDS011;65085;46.718;20.136;2022-11-15T02:58:24;24.27;;;12.82;;
76165;SDS011;65085;46.718;20.136;2022-11-15T03:02:03;22.58;;;12.18;;
76165;SDS011;65085;46.718;20.136;2022-11-15T03:05:40;24.15;;;12.98;;
76165;SDS011;65085;46.718;20.136;2022-11-15T03:09:07;21.10;;;12.13;;
76165;SDS011;65085;46.718;20.136;2022-11-15T03:12:35;24.43;;;12.67;;
76165;SDS011;65085;46.718;20.136;2022-11-15T03:16:02;22.85;;;12.38;;
76165;SDS011;65085;46.718;20.136;2022-11-15T03:19:28;21.92;;;12.23;;
76165;SDS011;65085;46.718;20.136;2022-11-15T03:22:56;22.70;;;12.73;;
76165;SDS011;65085;46.718;20.136;2022-11-15T03:26:24;22.38;;;12.50;;
76165;SDS011;65085;46.718;20.136;2022-11-15T03:29:47;21.47;;;11.50;;
76165;SDS011;65085;46.718;20.136;2022-11-15T03:33:13;24.70;;;12.68;;
76165;SDS011;65085;46.718;20.136;2022-11-15T03:36:34;23.92;;;12.23;;
76165;SDS011;65085;46.718;20.136;2022-11-15T03:39:57;23.92;;;13.10;;
76165;SDS011;65085;46.718;20.136;2022-11-15T03:43:22;25.92;;;13.43;;
76165;SDS011;65085;46.718;20.136;2022-11-15T03:46:52;23.60;;;12.63;;
76165;SDS011;65085;46.718;20.136;2022-11-15T03:50:20;22.63;;;11.90;;
76165;SDS011;65085;46.718;20.136;2022-11-15T03:53:43;23.33;;;12.27;;
76165;SDS011;65085;46.718;20.136;2022-11-15T03:57:05;25.92;;;12.95;;
76165;SDS011;65085;46.718;20.136;2022-11-15T04:00:31;24.33;;;12.27;;
76165;SDS011;65085;46.718;20.136;2022-11-15T04:03:52;23.60;;;12.03;;
76165;SDS011;65085;46.718;20.136;2022-11-15T04:07:13;25.08;;;12.57;;
76165;SDS011;65085;46.718;20.136;2022-11-15T04:10:37;25.33;;;12.30;;
76165;SDS011;65085;46.718;20.136;2022-11-15T04:14:00;25.08;;;13.18;;
76165;SDS011;65085;46.718;20.136;2022-11-15T04:17:21;27.02;;;13.65;;
76165;SDS011;65085;46.718;20.136;2022-11-15T04:20:44;26.37;;;13.37;;
76165;SDS011;65085;46.718;20.136;2022-11-15T04:24:24;25.58;;;14.10;;
76165;SDS011;65085;46.718;20.136;2022-11-15T04:27:45;24.50;;;13.02;;
76165;SDS011;65085;46.718;20.136;2022-11-15T04:31:07;24.60;;;13.55;;
76165;SDS011;65085;46.718;20.136;2022-11-15T04:34:28;24.25;;;13.23;;
76165;SDS011;65085;46.718;20.136;2022-11-15T04:37:49;30.87;;;14.90;;
76165;SDS011;65085;46.718;20.136;2022-11-15T04:41:10;26.70;;;14.38;;
76165;SDS011;65085;46.718;20.136;2022-11-15T04:44:31;25.42;;;13.48;;
76165;SDS011;65085;46.718;20.136;2022-11-15T04:47:53;27.08;;;13.50;;
76165;SDS011;65085;46.718;20.136;2022-11-15T04:51:14;30.02;;;15.05;;
76165;SDS011;65085;46.718;20.136;2022-11-15T04:54:36;27.97;;;14.13;;
76165;SDS011;65085;46.718;20.136;2022-11-15T04:57:57;29.25;;;14.40;;
76165;SDS011;65085;46.718;20.136;2022-11-15T05:01:22;28.83;;;15.43;;
76165;SDS011;65085;46.718;20.136;2022-11-15T05:04:44;25.75;;;13.40;;
76165;SDS011;65085;46.718;20.136;2022-11-15T05:08:06;28.25;;;13.90;;
76165;SDS011;65085;46.718;20.136;2022-11-15T05:11:27;26.73;;;13.63;;
76165;SDS011;65085;46.718;20.136;2022-11-15T05:14:48;26.73;;;13.02;;
76165;SDS011;65085;46.718;20.136;2022-11-15T05:18:10;25.80;;;13.75;;
76165;SDS011;65085;46.718;20.136;2022-11-15T05:21:33;28.13;;;14.25;;
76165;SDS011;65085;46.718;20.136;2022-11-15T05:24:54;29.48;;;14.70;;
76165;SDS011;65085;46.718;20.136;2022-11-15T05:28:15;29.97;;;15.30;;
76165;SDS011;65085;46.718;20.136;2022-11-15T05:31:37;27.02;;;15.02;;
76165;SDS011;65085;46.718;20.136;2022-11-15T05:35:00;30.13;;;15.90;;
76165;SDS011;65085;46.718;20.136;2022-11-15T05:38:23;29.60;;;14.73;;
76165;SDS011;65085;46.718;20.136;2022-11-15T05:41:45;27.02;;;14.82;;
76165;SDS011;65085;46.718;20.136;2022-11-15T05:45:09;30.90;;;14.77;;
76165;SDS011;65085;46.718;20.136;2022-11-15T05:48:30;32.58;;;15.38;;
76165;SDS011;65085;46.718;20.136;2022-11-15T05:51:51;29.17;;;14.95;;
76165;SDS011;65085;46.718;20.136;2022-11-15T05:55:15;31.02;;;14.32;;
76165;SDS011;65085;46.718;20.136;2022-11-15T05:58:36;27.42;;;13.57;;
76165;SDS011;65085;46.718;20.136;2022-11-15T06:01:58;25.10;;;13.73;;
76165;SDS011;65085;46.718;20.136;2022-11-15T06:05:19;24.92;;;13.85;;
76165;SDS011;65085;46.718;20.136;2022-11-15T06:08:40;26.98;;;14.63;;
76165;SDS011;65085;46.718;20.136;2022-11-15T06:12:03;27.92;;;14.63;;
76165;SDS011;65085;46.718;20.136;2022-11-15T06:15:24;26.20;;;14.27;;
76165;SDS011;65085;46.718;20.136;2022-11-15T06:18:48;28.83;;;15.03;;
76165;SDS011;65085;46.718;20.136;2022-11-15T06:22:09;29.85;;;15.40;;
76165;SDS011;65085;46.718;20.136;2022-11-15T06:25:30;26.50;;;14.13;;
76165;SDS011;65085;46.718;20.136;2022-11-15T06:28:53;29.95;;;15.77;;
76165;SDS011;65085;46.718;20.136;2022-11-15T06:32:14;27.85;;;14.25;;
76165;SDS011;65085;46.718;20.136;2022-11-15T06:35:36;26.30;;;14.33;;
76165;SDS011;65085;46.718;20.136;2022-11-15T06:38:57;27.10;;;14.48;;
76165;SDS011;65085;46.718;20.136;2022-11-15T06:42:18;27.65;;;14.88;;
76165;SDS011;65085;46.718;20.136;2022-11-15T06:45:40;26.50;;;14.40;;
76165;SDS011;65085;46.718;20.136;2022-11-15T06:49:01;25.98;;;14.02;;
76165;SDS011;65085;46.718;20.136;2022-11-15T06:52:35;26.57;;;14.40;;
76165;SDS011;65085;46.718;20.136;2022-11-15T06:56:22;26.98;;;14.38;;
76165;SDS011;65085;46.718;20.136;2022-11-15T06:59:52;32.50;;;16.02;;
76165;SDS011;65085;46.718;20.136;2022-11-15T07:03:41;29.65;;;15.50;;
76165;SDS011;65085;46.718;20.136;2022-11-15T07:07:03;26.17;;;14.52;;
76165;SDS011;65085;46.718;20.136;2022-11-15T07:10:25;28.40;;;15.00;;
76165;SDS011;65085;46.718;20.136;2022-11-15T07:13:46;28.15;;;15.07;;
76165;SDS011;65085;46.718;20.136;2022-11-15T07:17:08;25.23;;;14.23;;
76165;SDS011;65085;46.718;20.136;2022-11-15T07:20:31;31.50;;;17.45;;
76165;SDS011;65085;46.718;20.136;2022-11-15T07:23:53;37.97;;;23.25;;
76165;SDS011;65085;46.718;20.136;2022-11-15T07:27:14;30.13;;;17.33;;
76165;SDS011;65085;46.718;20.136;2022-11-15T07:30:37;28.60;;;15.90;;
76165;SDS011;65085;46.718;20.136;2022-11-15T07:34:06;30.30;;;16.58;;
76165;SDS011;65085;46.718;20.136;2022-11-15T07:37:29;33.67;;;17.67;;
76165;SDS011;65085;46.718;20.136;2022-11-15T07:40:55;43.97;;;21.98;;
76165;SDS011;65085;46.718;20.136;2022-11-15T07:44:18;30.90;;;17.50;;
76165;SDS011;65085;46.718;20.136;2022-11-15T07:47:39;31.70;;;17.42;;
76165;SDS011;65085;46.718;20.136;2022-11-15T07:51:02;32.13;;;18.42;;
76165;SDS011;65085;46.718;20.136;2022-11-15T07:54:27;32.28;;;18.88;;
76165;SDS011;65085;46.718;20.136;2022-11-15T07:57:48;33.83;;;18.58;;
76165;SDS011;65085;46.718;20.136;2022-11-15T08:01:10;32.00;;;17.70;;
76165;SDS011;65085;46.718;20.136;2022-11-15T08:04:32;38.58;;;18.75;;
76165;SDS011;65085;46.718;20.136;2022-11-15T08:07:54;40.85;;;18.85;;
76165;SDS011;65085;46.718;20.136;2022-11-15T08:11:17;42.00;;;21.58;;
76165;SDS011;65085;46.718;20.136;2022-11-15T08:14:39;45.15;;;23.33;;
76165;SDS011;65085;46.718;20.136;2022-11-15T08:18:00;37.80;;;19.03;;
76165;SDS011;65085;46.718;20.136;2022-11-15T08:21:23;35.15;;;18.15;;
76165;SDS011;65085;46.718;20.136;2022-11-15T08:24:45;29.65;;;16.85;;
76165;SDS011;65085;46.718;20.136;2022-11-15T08:28:09;28.25;;;16.13;;
76165;SDS011;65085;46.718;20.136;2022-11-15T08:31:31;36.75;;;17.77;;
76165;SDS011;65085;46.718;20.136;2022-11-15T08:34:53;35.83;;;17.73;;
76165;SDS011;65085;46.718;20.136;2022-11-15T08:38:14;33.97;;;16.25;;
76165;SDS011;65085;46.718;20.136;2022-11-15T08:41:36;34.38;;;16.63;;
76165;SDS011;65085;46.718;20.136;2022-11-15T08:45:00;35.92;;;16.50;;
76165;SDS011;65085;46.718;20.136;2022-11-15T08:48:21;34.35;;;16.20;;
76165;SDS011;65085;46.718;20.136;2022-11-15T08:51:42;35.60;;;17.30;;
76165;SDS011;65085;46.718;20.136;2022-11-15T08:55:04;40.08;;;18.30;;
76165;SDS011;65085;46.718;20.136;2022-11-15T08:58:25;44.85;;;19.05;;
76165;SDS011;65085;46.718;20.136;2022-11-15T09:01:48;37.15;;;18.85;;
76165;SDS011;65085;46.718;20.136;2022-11-15T09:05:09;45.97;;;19.02;;
76165;SDS011;65085;46.718;20.136;2022-11-15T09:08:30;36.53;;;19.00;;
76165;SDS011;65085;46.718;20.136;2022-11-15T09:12:08;37.30;;;19.17;;
76165;SDS011;65085;46.718;20.136;2022-11-15T09:15:29;34.17;;;18.88;;
76165;SDS011;65085;46.718;20.136;2022-11-15T09:18:53;35.33;;;18.50;;
76165;SDS011;65085;46.718;20.136;2022-11-15T09:22:15;36.90;;;18.95;;
76165;SDS011;65085;46.718;20.136;2022-11-15T09:25:36;36.37;;;19.17;;
76165;SDS011;65085;46.718;20.136;2022-11-15T09:28:57;36.72;;;18.00;;
76165;SDS011;65085;46.718;20.136;2022-11-15T09:32:19;35.63;;;18.45;;
76165;SDS011;65085;46.718;20.136;2022-11-15T09:35:41;32.28;;;17.90;;
76165;SDS011;65085;46.718;20.136;2022-11-15T09:39:02;31.52;;;17.23;;
76165;SDS011;65085;46.718;20.136;2022-11-15T09:42:37;35.87;;;19.07;;
76165;SDS011;65085;46.718;20.136;2022-11-15T09:46:10;32.97;;;17.85;;
76165;SDS011;65085;46.718;20.136;2022-11-15T09:49:36;32.95;;;18.25;;
76165;SDS011;65085;46.718;20.136;2022-11-15T09:53:01;35.50;;;18.20;;
76165;SDS011;65085;46.718;20.136;2022-11-15T09:56:05;35.88;;;18.50;;
76165;SDS011;65085;46.718;20.136;2022-11-15T09:59:19;36.67;;;17.93;;
76165;SDS011;65085;46.718;20.136;2022-11-15T10:02:33;31.67;;;16.17;;
76165;SDS011;65085;46.718;20.136;2022-11-15T10:05:52;32.15;;;16.63;;
76165;SDS011;65085;46.718;20.136;2022-11-15T10:09:02;32.80;;;16.67;;
76165;SDS011;65085;46.718;20.136;2022-11-15T10:12:10;35.03;;;18.15;;
76165;SDS011;65085;46.718;20.136;2022-11-15T10:15:16;40.47;;;21.43;;
76165;SDS011;65085;46.718;20.136;2022-11-15T10:18:27;37.58;;;18.38;;
76165;SDS011;65085;46.718;20.136;2022-11-15T10:21:39;36.13;;;18.15;;
76165;SDS011;65085;46.718;20.136;2022-11-15T10:24:52;36.97;;;16.65;;
76165;SDS011;65085;46.718;20.136;2022-11-15T10:28:09;37.83;;;19.05;;
76165;SDS011;65085;46.718;20.136;2022-11-15T10:31:22;32.00;;;16.43;;
76165;SDS011;65085;46.718;20.136;2022-11-15T10:34:35;31.65;;;16.75;;
76165;SDS011;65085;46.718;20.136;2022-11-15T10:37:38;32.55;;;16.75;;
76165;SDS011;65085;46.718;20.136;2022-11-15T10:40:47;30.83;;;15.88;;
76165;SDS011;65085;46.718;20.136;2022-11-15T10:44:01;32.95;;;15.52;;
76165;SDS011;65085;46.718;20.136;2022-11-15T10:47:23;33.83;;;16.20;;
76165;SDS011;65085;46.718;20.136;2022-11-15T10:50:31;31.92;;;16.13;;
76165;SDS011;65085;46.718;20.136;2022-11-15T10:53:37;33.45;;;16.02;;
76165;SDS011;65085;46.718;20.136;2022-11-15T10:56:49;33.22;;;15.75;;
76165;SDS011;65085;46.718;20.136;2022-11-15T10:59:54;34.15;;;17.42;;
76165;SDS011;65085;46.718;20.136;2022-11-15T11:03:01;35.67;;;17.60;;
76165;SDS011;65085;46.718;20.136;2022-11-15T11:06:06;35.47;;;16.48;;
76165;SDS011;65085;46.718;20.136;2022-11-15T11:09:18;34.90;;;17.52;;
76165;SDS011;65085;46.718;20.136;2022-11-15T11:12:30;31.20;;;17.27;;
76165;SDS011;65085;46.718;20.136;2022-11-15T11:15:34;37.53;;;18.77;;
76165;SDS011;65085;46.718;20.136;2022-11-15T11:18:38;41.17;;;21.87;;
76165;SDS011;65085;46.718;20.136;2022-11-15T11:21:46;31.90;;;16.48;;
76165;SDS011;65085;46.718;20.136;2022-11-15T11:24:58;30.48;;;16.40;;
76165;SDS011;65085;46.718;20.136;2022-11-15T11:28:21;30.77;;;16.45;;
76165;SDS011;65085;46.718;20.136;2022-11-15T11:31:41;30.85;;;14.48;;
76165;SDS011;65085;46.718;20.136;2022-11-15T11:34:54;36.20;;;17.57;;
76165;SDS011;65085;46.718;20.136;2022-11-15T11:38:09;37.97;;;18.85;;
76165;SDS011;65085;46.718;20.136;2022-11-15T11:41:29;35.78;;;20.05;;
76165;SDS011;65085;46.718;20.136;2022-11-15T11:44:51;34.97;;;17.20;;
76165;SDS011;65085;46.718;20.136;2022-11-15T11:48:09;34.67;;;18.50;;
76165;SDS011;65085;46.718;20.136;2022-11-15T11:51:17;39.83;;;20.33;;
76165;SDS011;65085;46.718;20.136;2022-11-15T11:54:22;41.25;;;20.88;;
76165;SDS011;65085;46.718;20.136;2022-11-15T11:57:35;41.05;;;21.20;;
76165;SDS011;65085;46.718;20.136;2022-11-15T12:01:00;40.75;;;20.45;;
76165;SDS011;65085;46.718;20.136;2022-11-15T12:04:14;39.25;;;17.60;;
76165;SDS011;65085;46.718;20.136;2022-11-15T12:07:21;39.83;;;20.87;;
76165;SDS011;65085;46.718;20.136;2022-11-15T12:10:28;38.00;;;19.13;;
76165;SDS011;65085;46.718;20.136;2022-11-15T12:13:33;42.35;;;21.35;;
76165;SDS011;65085;46.718;20.136;2022-11-15T12:16:42;39.00;;;18.65;;
76165;SDS011;65085;46.718;20.136;2022-11-15T12:19:45;50.25;;;23.50;;
76165;SDS011;65085;46.718;20.136;2022-11-15T12:22:49;43.63;;;21.87;;
76165;SDS011;65085;46.718;20.136;2022-11-15T12:25:59;44.50;;;21.65;;
76165;SDS011;65085;46.718;20.136;2022-11-15T12:29:09;48.88;;;23.55;;
76165;SDS011;65085;46.718;20.136;2022-11-15T12:32:24;49.00;;;24.17;;
76165;SDS011;65085;46.718;20.136;2022-11-15T12:35:32;46.63;;;21.92;;
76165;SDS011;65085;46.718;20.136;2022-11-15T12:38:51;46.33;;;21.87;;
76165;SDS011;65085;46.718;20.136;2022-11-15T12:45:32;50.28;;;23.65;;
76165;SDS011;65085;46.718;20.136;2022-11-15T12:48:48;46.75;;;23.13;;
76165;SDS011;65085;46.718;20.136;2022-11-15T12:58:41;52.78;;;25.05;;
76165;SDS011;65085;46.718;20.136;2022-11-15T13:01:58;51.88;;;25.20;;
76165;SDS011;65085;46.718;20.136;2022-11-15T13:08:52;49.47;;;24.88;;
76165;SDS011;65085;46.718;20.136;2022-11-15T13:11:55;55.00;;;25.70;;
76165;SDS011;65085;46.718;20.136;2022-11-15T13:14:59;54.38;;;27.00;;
76165;SDS011;65085;46.718;20.136;2022-11-15T13:21:47;51.72;;;27.42;;
76165;SDS011;65085;46.718;20.136;2022-11-15T13:25:18;53.05;;;27.17;;
76165;SDS011;65085;46.718;20.136;2022-11-15T13:28:27;62.40;;;28.83;;
76165;SDS011;65085;46.718;20.136;2022-11-15T13:31:35;56.13;;;27.05;;
76165;SDS011;65085;46.718;20.136;2022-11-15T13:34:40;51.97;;;27.08;;
76165;SDS011;65085;46.718;20.136;2022-11-15T13:37:54;66.00;;;36.85;;
76165;SDS011;65085;46.718;20.136;2022-11-15T13:41:10;61.83;;;30.52;;
76165;SDS011;65085;46.718;20.136;2022-11-15T13:44:18;66.33;;;31.30;;
76165;SDS011;65085;46.718;20.136;2022-11-15T13:47:24;66.05;;;30.42;;
76165;SDS011;65085;46.718;20.136;2022-11-15T13:50:31;59.50;;;29.05;;
76165;SDS011;65085;46.718;20.136;2022-11-15T13:53:38;63.08;;;27.90;;
76165;SDS011;65085;46.718;20.136;2022-11-15T13:56:46;65.28;;;29.15;;
76165;SDS011;65085;46.718;20.136;2022-11-15T13:59:54;59.57;;;28.77;;
76165;SDS011;65085;46.718;20.136;2022-11-15T14:03:05;57.60;;;27.38;;
76165;SDS011;65085;46.718;20.136;2022-11-15T14:06:10;59.17;;;27.88;;
76165;SDS011;65085;46.718;20.136;2022-11-15T14:09:32;59.08;;;28.83;;
76165;SDS011;65085;46.718;20.136;2022-11-15T14:12:38;60.03;;;27.45;;
76165;SDS011;65085;46.718;20.136;2022-11-15T14:15:41;57.57;;;28.63;;
76165;SDS011;65085;46.718;20.136;2022-11-15T14:18:47;56.50;;;27.25;;
76165;SDS011;65085;46.718;20.136;2022-11-15T14:22:07;56.50;;;27.80;;
76165;SDS011;65085;46.718;20.136;2022-11-15T14:25:17;62.10;;;29.25;;
76165;SDS011;65085;46.718;20.136;2022-11-15T14:28:30;60.70;;;29.73;;
76165;SDS011;65085;46.718;20.136;2022-11-15T14:31:37;58.63;;;28.57;;
76165;SDS011;65085;46.718;20.136;2022-11-15T14:34:45;68.55;;;31.50;;
76165;SDS011;65085;46.718;20.136;2022-11-15T14:37:48;72.65;;;35.50;;
76165;SDS011;65085;46.718;20.136;2022-11-15T14:40:51;69.20;;;33.40;;
76165;SDS011;65085;46.718;20.136;2022-11-15T14:43:55;67.75;;;33.97;;
76165;SDS011;65085;46.718;20.136;2022-11-15T14:46:58;67.63;;;34.13;;
76165;SDS011;65085;46.718;20.136;2022-11-15T14:50:00;70.20;;;33.03;;
76165;SDS011;65085;46.718;20.136;2022-11-15T14:53:03;78.93;;;35.05;;
76165;SDS011;65085;46.718;20.136;2022-11-15T14:56:06;70.95;;;35.13;;
76165;SDS011;65085;46.718;20.136;2022-11-15T14:59:10;72.30;;;35.17;;
76165;SDS011;65085;46.718;20.136;2022-11-15T15:02:16;71.80;;;36.50;;
76165;SDS011;65085;46.718;20.136;2022-11-15T15:05:22;86.00;;;40.22;;
76165;SDS011;65085;46.718;20.136;2022-11-15T15:08:26;79.43;;;36.72;;
76165;SDS011;65085;46.718;20.136;2022-11-15T15:11:29;113.18;;;48.95;;
76165;SDS011;65085;46.718;20.136;2022-11-15T15:14:34;89.13;;;41.53;;
76165;SDS011;65085;46.718;20.136;2022-11-15T15:17:37;100.73;;;51.23;;
76165;SDS011;65085;46.718;20.136;2022-11-15T15:20:41;137.70;;;68.05;;
76165;SDS011;65085;46.718;20.136;2022-11-15T15:23:45;152.73;;;81.85;;
76165;SDS011;65085;46.718;20.136;2022-11-15T15:26:47;243.98;;;86.63;;
76165;SDS011;65085;46.718;20.136;2022-11-15T15:29:51;333.92;;;110.47;;
76165;SDS011;65085;46.718;20.136;2022-11-15T15:32:53;140.53;;;57.03;;
76165;SDS011;65085;46.718;20.136;2022-11-15T15:35:56;98.80;;;46.10;;
76165;SDS011;65085;46.718;20.136;2022-11-15T15:38:59;94.82;;;44.72;;
76165;SDS011;65085;46.718;20.136;2022-11-15T15:42:02;94.28;;;43.80;;
76165;SDS011;65085;46.718;20.136;2022-11-15T15:45:08;92.18;;;43.67;;
76165;SDS011;65085;46.718;20.136;2022-11-15T15:48:12;88.30;;;42.20;;
76165;SDS011;65085;46.718;20.136;2022-11-15T15:51:16;97.82;;;45.60;;
76165;SDS011;65085;46.718;20.136;2022-11-15T15:54:21;89.07;;;43.50;;
76165;SDS011;65085;46.718;20.136;2022-11-15T15:57:24;88.97;;;42.67;;
76165;SDS011;65085;46.718;20.136;2022-11-15T16:00:30;78.95;;;40.38;;
76165;SDS011;65085;46.718;20.136;2022-11-15T16:03:35;89.73;;;43.90;;
76165;SDS011;65085;46.718;20.136;2022-11-15T16:06:39;127.95;;;59.38;;
76165;SDS011;65085;46.718;20.136;2022-11-15T16:09:46;143.55;;;68.60;;
76165;SDS011;65085;46.718;20.136;2022-11-15T16:13:04;128.65;;;53.08;;
76165;SDS011;65085;46.718;20.136;2022-11-15T16:16:09;85.57;;;39.05;;
76165;SDS011;65085;46.718;20.136;2022-11-15T16:19:15;93.17;;;46.07;;
76165;SDS011;65085;46.718;20.136;2022-11-15T16:22:17;111.75;;;55.10;;
76165;SDS011;65085;46.718;20.136;2022-11-15T16:25:20;108.30;;;52.78;;
76165;SDS011;65085;46.718;20.136;2022-11-15T16:28:24;91.28;;;46.10;;
76165;SDS011;65085;46.718;20.136;2022-11-15T16:31:30;94.68;;;46.45;;
76165;SDS011;65085;46.718;20.136;2022-11-15T16:34:32;94.30;;;45.43;;
76165;SDS011;65085;46.718;20.136;2022-11-15T16:37:42;87.43;;;43.60;;
76165;SDS011;65085;46.718;20.136;2022-11-15T16:40:48;84.53;;;42.45;;
76165;SDS011;65085;46.718;20.136;2022-11-15T16:43:50;86.53;;;42.63;;
76165;SDS011;65085;46.718;20.136;2022-11-15T16:46:55;82.05;;;42.42;;
76165;SDS011;65085;46.718;20.136;2022-11-15T16:49:57;78.90;;;39.20;;
76165;SDS011;65085;46.718;20.136;2022-11-15T16:53:00;78.15;;;40.10;;
76165;SDS011;65085;46.718;20.136;2022-11-15T16:56:08;81.60;;;41.72;;
76165;SDS011;65085;46.718;20.136;2022-11-15T16:59:20;75.35;;;35.58;;
76165;SDS011;65085;46.718;20.136;2022-11-15T17:02:24;72.05;;;36.90;;
76165;SDS011;65085;46.718;20.136;2022-11-15T17:05:27;73.37;;;36.03;;
76165;SDS011;65085;46.718;20.136;2022-11-15T17:08:30;95.63;;;42.92;;
76165;SDS011;65085;46.718;20.136;2022-11-15T17:11:33;104.25;;;44.78;;
76165;SDS011;65085;46.718;20.136;2022-11-15T17:14:35;68.78;;;34.25;;
76165;SDS011;65085;46.718;20.136;2022-11-15T17:17:39;76.43;;;37.70;;
76165;SDS011;65085;46.718;20.136;2022-11-15T17:20:42;90.67;;;43.57;;
76165;SDS011;65085;46.718;20.136;2022-11-15T17:23:45;92.72;;;46.75;;
76165;SDS011;65085;46.718;20.136;2022-11-15T17:26:49;88.18;;;46.60;;
76165;SDS011;65085;46.718;20.136;2022-11-15T17:29:51;88.28;;;44.15;;
76165;SDS011;65085;46.718;20.136;2022-11-15T17:32:55;92.20;;;45.03;;
76165;SDS011;65085;46.718;20.136;2022-11-15T17:36:03;87.80;;;45.40;;
76165;SDS011;65085;46.718;20.136;2022-11-15T17:39:07;99.78;;;47.53;;
76165;SDS011;65085;46.718;20.136;2022-11-15T17:42:10;102.40;;;47.20;;
76165;SDS011;65085;46.718;20.136;2022-11-15T17:45:12;121.47;;;59.72;;
76165;SDS011;65085;46.718;20.136;2022-11-15T17:48:16;120.55;;;59.40;;
76165;SDS011;65085;46.718;20.136;2022-11-15T17:51:19;92.80;;;46.57;;
76165;SDS011;65085;46.718;20.136;2022-11-15T17:54:23;97.38;;;50.75;;
76165;SDS011;65085;46.718;20.136;2022-11-15T17:57:25;99.70;;;48.78;;
76165;SDS011;65085;46.718;20.136;2022-11-15T18:00:29;99.40;;;47.60;;
76165;SDS011;65085;46.718;20.136;2022-11-15T18:03:34;110.63;;;52.15;;
76165;SDS011;65085;46.718;20.136;2022-11-15T18:06:36;98.93;;;50.17;;
76165;SDS011;65085;46.718;20.136;2022-11-15T18:09:39;105.22;;;51.25;;
76165;SDS011;65085;46.718;20.136;2022-11-15T18:12:45;114.20;;;52.15;;
76165;SDS011;65085;46.718;20.136;2022-11-15T18:15:52;126.32;;;52.40;;
76165;SDS011;65085;46.718;20.136;2022-11-15T18:18:57;131.45;;;54.78;;
76165;SDS011;65085;46.718;20.136;2022-11-15T18:22:00;131.10;;;53.43;;
76165;SDS011;65085;46.718;20.136;2022-11-15T18:25:05;125.22;;;51.88;;
76165;SDS011;65085;46.718;20.136;2022-11-15T18:28:09;115.85;;;50.33;;
76165;SDS011;65085;46.718;20.136;2022-11-15T18:31:13;119.20;;;48.80;;
76165;SDS011;65085;46.718;20.136;2022-11-15T18:34:18;100.32;;;46.13;;
76165;SDS011;65085;46.718;20.136;2022-11-15T18:37:21;100.87;;;46.73;;
76165;SDS011;65085;46.718;20.136;2022-11-15T18:40:23;92.25;;;45.67;;
76165;SDS011;65085;46.718;20.136;2022-11-15T18:43:26;92.45;;;47.58;;
76165;SDS011;65085;46.718;20.136;2022-11-15T18:46:29;75.20;;;39.67;;
76165;SDS011;65085;46.718;20.136;2022-11-15T18:49:36;80.10;;;39.97;;
76165;SDS011;65085;46.718;20.136;2022-11-15T18:52:38;89.07;;;43.33;;
76165;SDS011;65085;46.718;20.136;2022-11-15T18:55:42;97.53;;;47.88;;
76165;SDS011;65085;46.718;20.136;2022-11-15T18:58:46;102.70;;;50.28;;
76165;SDS011;65085;46.718;20.136;2022-11-15T19:01:50;112.75;;;52.55;;
76165;SDS011;65085;46.718;20.136;2022-11-15T19:04:55;114.93;;;54.65;;